Terminal Aerodrome Forecast
Issued by NWS

Home | Current Version | Previous Version | Text Only | Print | Product List | Glossary On
Versions: 1 2 3 4 5 6 7 8 9 10 11 12 13
000
FTUS46 KSTO 201120
TAFSAC
TAF
KSAC 201120Z 2012/2112 VRB04KT P6SM OVC060
     FM201400 14005KT 6SM BR OVC050
      TEMPO 2014/2018 4SM -SHRA OVC025
     FM210200 VRB03KT 6SM BR OVC050=

USA.gov is the U.S. government's official web portal to all federal, state and local government web resources and services.